Time;durP1;ratioP1;P1;durP2;ratioP2;P2;SDS_P1;SDS_P2;PMS_P1;PMS_P2;Temp;Humidity;BMP_temperature;BMP_pressure;BME280_temperature;BME280_humidity;BME280_pressure;Samples;Min_cycle;Max_cycle;Signal;HPM_P1;HPM_P2
2022/03/21 00:01:00;;;;;;;38.60;23.23;;;23.20;29.50;;;;;;6130919;28;82994;-74
2022/03/21 00:04:01;;;;;;;34.38;20.27;;;23.20;29.40;;;;;;6149420;28;84360;-73
2022/03/21 00:07:01;;;;;;;36.03;20.77;;;23.20;29.50;;;;;;6157440;28;82915;-74
2022/03/21 00:10:02;;;;;;;35.55;19.65;;;23.20;30.00;;;;;;6151139;28;83075;-72
2022/03/21 00:13:02;;;;;;;36.17;21.25;;;23.20;29.70;;;;;;6145710;28;83065;-72
2022/03/21 00:16:03;;;;;;;32.70;19.70;;;23.20;29.70;;;;;;6131975;28;83152;-72
2022/03/21 00:19:04;;;;;;;34.05;19.48;;;23.20;30.40;;;;;;6131778;28;83108;-72
2022/03/21 00:22:04;;;;;;;35.42;19.92;;;23.20;29.90;;;;;;6135752;28;82994;-73
2022/03/21 00:25:05;;;;;;;32.85;19.88;;;23.10;29.70;;;;;;6145996;28;84382;-73
2022/03/21 00:28:07;;;;;;;34.30;19.73;;;23.10;29.90;;;;;;6160502;28;83168;-74
2022/03/21 00:31:08;;;;;;;34.65;20.17;;;23.10;29.90;;;;;;6159026;28;84819;-74
2022/03/21 00:34:09;;;;;;;37.13;19.23;;;23.10;30.00;;;;;;6160667;28;84270;-73
2022/03/21 00:37:12;;;;;;;34.65;19.70;;;23.10;30.10;;;;;;6161072;28;83110;-73
2022/03/21 00:40:12;;;;;;;32.55;19.17;;;23.10;30.20;;;;;;6150552;28;82967;-72
2022/03/21 00:43:13;;;;;;;30.95;18.60;;;23.10;30.00;;;;;;6138328;28;82863;-72
2022/03/21 00:46:14;;;;;;;35.60;20.38;;;23.10;30.10;;;;;;6153316;28;83318;-72
2022/03/21 00:49:14;;;;;;;34.33;19.02;;;23.10;30.20;;;;;;6159677;28;83602;-73
2022/03/21 00:52:15;;;;;;;33.50;19.70;;;23.10;30.40;;;;;;6148395;28;82927;-74
2022/03/21 00:55:15;;;;;;;35.67;19.65;;;23.10;30.30;;;;;;6136663;28;82981;-74
2022/03/21 00:58:16;;;;;;;34.35;18.42;;;23.10;30.90;;;;;;6145933;28;83197;-73
2022/03/21 01:01:17;;;;;;;37.85;20.60;;;23.10;30.20;;;;;;6158244;28;83999;-74
2022/03/21 01:04:17;;;;;;;32.13;18.08;;;23.00;30.20;;;;;;6157061;28;84404;-75
2022/03/21 01:07:17;;;;;;;35.22;19.65;;;23.00;29.80;;;;;;6143741;28;82990;-74
2022/03/21 01:10:18;;;;;;;32.78;18.88;;;23.00;30.00;;;;;;6133565;28;83551;-74
2022/03/21 01:13:21;;;;;;;33.47;18.42;;;23.00;30.10;;;;;;6153941;28;83949;-73
2022/03/21 01:16:21;;;;;;;33.70;18.42;;;23.00;30.30;;;;;;6152627;28;83293;-73
2022/03/21 01:19:22;;;;;;;34.63;19.15;;;23.00;30.10;;;;;;6140108;28;83151;-72
2022/03/21 01:22:22;;;;;;;35.30;18.48;;;23.00;30.10;;;;;;6149718;28;83176;-74
2022/03/21 01:25:23;;;;;;;34.17;18.25;;;23.00;30.20;;;;;;6150938;28;82948;-73
2022/03/21 01:28:24;;;;;;;34.30;18.98;;;23.00;30.10;;;;;;6152794;28;82806;-73
2022/03/21 01:31:24;;;;;;;29.20;17.75;;;23.00;30.10;;;;;;6132726;28;83221;-72
2022/03/21 01:34:25;;;;;;;32.05;18.23;;;23.00;30.60;;;;;;6143660;28;83186;-72
2022/03/21 01:37:25;;;;;;;34.30;18.77;;;23.00;30.20;;;;;;6154311;28;83510;-72
2022/03/21 01:40:26;;;;;;;35.65;19.05;;;23.00;30.00;;;;;;6149943;28;83314;-73
2022/03/21 01:43:26;;;;;;;34.45;19.48;;;23.00;30.20;;;;;;6151550;28;82978;-72
2022/03/21 01:46:27;;;;;;;34.97;19.38;;;23.00;30.20;;;;;;6150900;28;84219;-73
2022/03/21 01:49:28;;;;;;;34.42;19.33;;;23.00;30.10;;;;;;6133619;28;83533;-73
2022/03/21 01:52:28;;;;;;;32.72;18.63;;;22.90;29.90;;;;;;6136952;28;84738;-73
2022/03/21 01:55:44;;;;;;;33.55;18.08;;;22.90;29.90;;;;;;6133367;28;83222;-74
2022/03/21 01:58:44;;;;;;;34.60;18.67;;;22.90;30.00;;;;;;6133072;28;83422;-72
2022/03/21 02:01:45;;;;;;;31.38;17.90;;;22.90;30.00;;;;;;6148124;28;83471;-73
2022/03/21 02:04:46;;;;;;;35.90;20.38;;;23.00;29.90;;;;;;6157033;28;84234;-73
2022/03/21 02:07:47;;;;;;;34.75;19.38;;;22.90;29.90;;;;;;6157273;28;83216;-74
2022/03/21 02:10:48;;;;;;;33.63;19.45;;;22.90;29.90;;;;;;6157212;28;84117;-74
2022/03/21 02:13:49;;;;;;;34.17;19.92;;;22.90;30.00;;;;;;6155432;28;83843;-74
2022/03/21 02:16:51;;;;;;;35.20;20.85;;;22.90;29.90;;;;;;6133858;28;84147;-73
2022/03/21 02:19:51;;;;;;;39.30;20.33;;;22.90;29.80;;;;;;6150801;28;83021;-72
2022/03/21 02:22:52;;;;;;;34.92;20.98;;;22.90;29.70;;;;;;6151651;28;84141;-72
2022/03/21 02:25:52;;;;;;;36.15;21.08;;;22.90;29.70;;;;;;6141261;28;83048;-73
2022/03/21 02:28:53;;;;;;;40.60;22.38;;;22.90;29.80;;;;;;6148285;28;83116;-74
2022/03/21 02:31:57;;;;;;;37.17;21.13;;;22.90;29.50;;;;;;6132846;28;84520;-73
2022/03/21 02:34:58;;;;;;;38.00;21.70;;;22.90;29.70;;;;;;6153252;28;83168;-73
2022/03/21 02:37:58;;;;;;;38.00;20.83;;;22.90;29.70;;;;;;6156811;28;83555;-73
2022/03/21 02:40:59;;;;;;;36.88;20.73;;;22.90;29.50;;;;;;6156729;28;83193;-73
2022/03/21 02:43:59;;;;;;;34.65;20.60;;;22.80;29.50;;;;;;6153132;28;83181;-73
2022/03/21 02:47:00;;;;;;;37.17;21.50;;;22.80;29.00;;;;;;6132400;28;84096;-72
2022/03/21 02:50:00;;;;;;;39.83;21.65;;;22.80;29.40;;;;;;6123129;28;83916;-73
2022/03/21 02:53:01;;;;;;;33.22;20.17;;;22.80;29.20;;;;;;6126376;28;82750;-73
2022/03/21 02:56:01;;;;;;;42.28;20.80;;;22.80;29.30;;;;;;6131831;28;83078;-73
2022/03/21 02:59:02;;;;;;;38.25;21.27;;;22.80;29.30;;;;;;6131516;28;82880;-72
2022/03/21 03:02:02;;;;;;;37.67;20.85;;;22.80;29.30;;;;;;6149721;28;83114;-72
2022/03/21 03:05:03;;;;;;;37.22;20.98;;;22.80;29.30;;;;;;6141284;28;82999;-73
2022/03/21 03:08:03;;;;;;;36.50;20.98;;;22.80;29.10;;;;;;6133904;28;83384;-74
2022/03/21 03:11:04;;;;;;;38.20;21.88;;;22.80;29.10;;;;;;6155948;28;83028;-73
2022/03/21 03:14:04;;;;;;;33.28;19.90;;;22.80;29.10;;;;;;6152705;28;83325;-73
2022/03/21 03:17:06;;;;;;;38.10;20.48;;;22.80;29.20;;;;;;6155826;28;83118;-72
2022/03/21 03:20:06;;;;;;;38.70;21.00;;;22.80;29.40;;;;;;6150577;28;83396;-73
2022/03/21 03:23:07;;;;;;;35.75;20.05;;;22.80;29.40;;;;;;6131762;28;83395;-72
2022/03/21 03:26:07;;;;;;;38.60;21.95;;;22.80;29.40;;;;;;6131699;28;83134;-72
2022/03/21 03:29:08;;;;;;;38.30;21.15;;;22.80;29.30;;;;;;6142860;28;82986;-73
2022/03/21 03:32:08;;;;;;;39.53;20.75;;;22.80;29.50;;;;;;6154030;28;84273;-73
2022/03/21 03:35:09;;;;;;;34.40;20.35;;;22.80;29.40;;;;;;6152999;28;83337;-72
2022/03/21 03:38:10;;;;;;;34.10;19.92;;;22.80;29.40;;;;;;6130570;28;84100;-72
2022/03/21 03:41:10;;;;;;;37.95;21.58;;;22.80;29.30;;;;;;6153479;28;84282;-72
2022/03/21 03:44:11;;;;;;;39.95;20.95;;;22.80;29.40;;;;;;6138121;28;83113;-72
2022/03/21 03:47:11;;;;;;;36.78;19.80;;;22.70;29.50;;;;;;6143172;28;82999;-72
2022/03/21 03:50:12;;;;;;;36.88;20.05;;;22.70;29.90;;;;;;6131420;28;83442;-73
2022/03/21 03:53:12;;;;;;;36.97;20.30;;;22.70;30.10;;;;;;6146792;28;83172;-73
2022/03/21 03:56:13;;;;;;;31.75;18.52;;;22.70;29.90;;;;;;6158418;28;83088;-72
2022/03/21 03:59:14;;;;;;;33.80;18.17;;;22.70;30.20;;;;;;6156879;28;83985;-73
2022/03/21 04:02:15;;;;;;;31.55;18.63;;;22.70;30.30;;;;;;6158934;28;82931;-73
2022/03/21 04:05:15;;;;;;;31.48;18.02;;;22.70;30.20;;;;;;6159912;28;83517;-74
2022/03/21 04:08:16;;;;;;;34.90;19.50;;;22.70;30.50;;;;;;6151340;28;83003;-73
2022/03/21 04:11:16;;;;;;;31.23;19.05;;;22.70;29.60;;;;;;6159410;28;83493;-73
2022/03/21 04:14:17;;;;;;;38.30;20.13;;;22.70;29.80;;;;;;6139762;28;83146;-72
2022/03/21 04:17:17;;;;;;;33.17;18.70;;;22.70;29.80;;;;;;6135394;28;83128;-72
2022/03/21 04:20:18;;;;;;;35.50;18.80;;;22.80;30.20;;;;;;6159258;28;83778;-72
2022/03/21 04:23:18;;;;;;;38.28;19.70;;;22.80;29.80;;;;;;6157802;28;82914;-73
2022/03/21 04:26:19;;;;;;;34.35;19.90;;;22.90;29.40;;;;;;6170056;28;84105;-73
2022/03/21 04:29:19;;;;;;;33.05;19.55;;;23.00;29.30;;;;;;6158432;28;84191;-72
2022/03/21 04:32:20;;;;;;;39.05;20.92;;;23.00;29.00;;;;;;6140999;28;84298;-70
2022/03/21 04:35:20;;;;;;;33.03;20.30;;;23.00;28.80;;;;;;6134821;28;83195;-72
2022/03/21 04:38:21;;;;;;;39.58;21.92;;;23.10;29.20;;;;;;6135151;28;83485;-72
2022/03/21 04:41:21;;;;;;;35.67;19.92;;;23.10;28.40;;;;;;6158929;28;83078;-73
2022/03/21 04:44:22;;;;;;;33.83;19.63;;;23.20;28.30;;;;;;6156766;28;83421;-72
2022/03/21 04:47:23;;;;;;;39.60;22.17;;;23.20;28.20;;;;;;6154787;28;84028;-71
2022/03/21 04:50:23;;;;;;;33.22;20.35;;;23.20;28.10;;;;;;6144820;28;83316;-72
2022/03/21 04:53:24;;;;;;;37.28;20.88;;;23.20;28.20;;;;;;6143670;28;83076;-67
2022/03/21 04:56:24;;;;;;;36.80;21.60;;;23.20;28.10;;;;;;6148971;28;83086;-70
2022/03/21 04:59:25;;;;;;;38.55;20.67;;;23.20;28.30;;;;;;6140596;28;84039;-74
2022/03/21 05:02:25;;;;;;;39.25;20.08;;;23.20;28.30;;;;;;6151999;28;82878;-70
2022/03/21 05:05:26;;;;;;;36.38;20.00;;;23.30;28.70;;;;;;6157852;28;82768;-75
2022/03/21 05:08:26;;;;;;;34.10;20.17;;;23.30;28.90;;;;;;6145944;28;83791;-73
2022/03/21 05:11:27;;;;;;;32.47;19.05;;;23.30;29.10;;;;;;6155002;28;83208;-72
2022/03/21 05:14:27;;;;;;;35.70;20.52;;;23.40;30.00;;;;;;6110519;28;83962;-71
2022/03/21 05:17:28;;;;;;;38.28;20.83;;;23.40;29.90;;;;;;6141218;28;83022;-70
2022/03/21 05:20:28;;;;;;;35.97;18.92;;;23.40;29.90;;;;;;6147151;28;83023;-71
2022/03/21 05:36:46;;;;;;;21.90;11.95;;;23.40;36.00;;;;;;6154041;28;84459;-70
2022/03/21 05:43:05;;;;;;;23.80;11.48;;;23.30;36.50;;;;;;6154019;28;85586;-69
2022/03/21 05:46:06;;;;;;;23.65;12.82;;;23.40;37.00;;;;;;6157438;28;82803;-69
2022/03/21 05:49:07;;;;;;;25.58;13.20;;;23.30;37.40;;;;;;6139042;28;83806;-69
2022/03/21 05:52:07;;;;;;;25.13;13.57;;;23.30;37.80;;;;;;6141507;28;84434;-70
2022/03/21 05:55:08;;;;;;;22.25;13.02;;;23.30;37.70;;;;;;6157029;28;84249;-72
2022/03/21 05:58:08;;;;;;;25.00;13.52;;;23.30;37.90;;;;;;6148635;28;82896;-70
2022/03/21 06:01:11;;;;;;;23.92;13.18;;;23.20;38.50;;;;;;6139692;28;83282;-69
2022/03/21 06:04:11;;;;;;;23.13;13.57;;;23.20;38.50;;;;;;6153146;28;83263;-69
2022/03/21 06:07:12;;;;;;;23.95;14.68;;;23.20;39.10;;;;;;6143627;28;83660;-69
2022/03/21 06:10:12;;;;;;;24.67;14.10;;;23.20;39.30;;;;;;6153220;28;83119;-68
2022/03/21 06:13:14;;;;;;;21.25;12.75;;;23.20;39.70;;;;;;6151130;28;83132;-68
2022/03/21 06:16:15;;;;;;;26.38;14.35;;;23.20;39.90;;;;;;6145444;28;83225;-70
2022/03/21 06:19:15;;;;;;;21.50;12.52;;;23.20;40.40;;;;;;6141081;28;83566;-71
2022/03/21 06:22:16;;;;;;;20.40;11.98;;;23.20;39.60;;;;;;6146777;28;83292;-67
2022/03/21 06:25:16;;;;;;;31.65;13.95;;;23.30;40.00;;;;;;6151889;28;84535;-70
2022/03/21 06:28:17;;;;;;;26.95;13.23;;;23.40;39.50;;;;;;6141609;28;84239;-68
2022/03/21 06:31:17;;;;;;;28.75;14.77;;;23.40;39.60;;;;;;6132267;28;83326;-70
2022/03/21 06:34:18;;;;;;;24.52;13.18;;;23.40;38.50;;;;;;6132509;28;83891;-70
2022/03/21 06:37:18;;;;;;;25.42;13.60;;;23.40;38.90;;;;;;6142536;28;83069;-70
2022/03/21 06:40:20;;;;;;;24.55;13.20;;;23.50;38.50;;;;;;6144001;28;83383;-68
2022/03/21 06:43:22;;;;;;;25.17;13.23;;;23.40;38.80;;;;;;6132818;28;83349;-74
2022/03/21 06:46:22;;;;;;;26.20;13.77;;;23.40;38.90;;;;;;6139578;28;83136;-68
2022/03/21 06:49:29;;;;;;;32.13;14.27;;;23.50;38.60;;;;;;6156279;28;83216;-69
2022/03/21 06:52:30;;;;;;;29.48;14.85;;;23.50;38.40;;;;;;6146987;28;89774;-69
2022/03/21 06:55:30;;;;;;;25.42;14.00;;;23.50;38.30;;;;;;6155749;28;83050;-67
2022/03/21 06:58:31;;;;;;;23.05;13.02;;;23.50;38.50;;;;;;6147485;28;83017;-66
2022/03/21 07:01:35;;;;;;;27.63;14.38;;;23.40;38.00;;;;;;6146860;28;84174;-69
2022/03/21 07:04:36;;;;;;;27.50;15.00;;;23.40;38.20;;;;;;6146340;28;84893;-67
2022/03/21 07:07:37;;;;;;;27.95;13.60;;;23.40;37.70;;;;;;6136807;28;83240;-68
2022/03/21 07:10:40;;;;;;;25.75;13.75;;;23.40;38.20;;;;;;6134647;28;83948;-68
2022/03/21 07:13:40;;;;;;;23.50;13.75;;;23.50;38.00;;;;;;6136703;28;83311;-67
2022/03/21 07:16:41;;;;;;;23.67;14.00;;;23.50;38.60;;;;;;6138589;28;83966;-67
2022/03/21 07:19:42;;;;;;;17.88;11.38;;;23.40;37.90;;;;;;6132715;28;83238;-66
2022/03/21 07:22:42;;;;;;;26.25;13.27;;;23.40;38.40;;;;;;6132984;28;82784;-67
2022/03/21 07:25:43;;;;;;;28.45;13.18;;;23.50;38.20;;;;;;6148052;28;83557;-69
2022/03/21 07:28:43;;;;;;;20.75;12.40;;;23.50;38.60;;;;;;6139175;28;83023;-68
2022/03/21 07:31:44;;;;;;;24.58;12.70;;;23.50;38.70;;;;;;6133202;28;83218;-70
2022/03/21 07:34:44;;;;;;;22.35;13.07;;;23.50;38.50;;;;;;6131715;28;83172;-69
2022/03/21 07:37:49;;;;;;;26.77;13.68;;;23.50;37.60;;;;;;6151078;28;83445;-71
2022/03/21 07:40:50;;;;;;;24.55;13.05;;;23.50;37.70;;;;;;6150540;28;84362;-71
2022/03/21 07:43:51;;;;;;;23.48;13.45;;;23.40;37.90;;;;;;6149728;28;84291;-71
2022/03/21 07:50:11;;;;;;;20.83;12.90;;;23.40;37.90;;;;;;6146392;28;88945;-71
2022/03/21 07:53:11;;;;;;;22.38;11.68;;;23.50;37.60;;;;;;6137574;28;83109;-71
2022/03/21 07:56:12;;;;;;;22.75;11.90;;;23.50;38.30;;;;;;6143024;28;84221;-73
2022/03/21 07:59:12;;;;;;;21.00;12.20;;;23.50;38.20;;;;;;6144680;28;83178;-72
2022/03/21 08:02:13;;;;;;;21.20;11.32;;;23.50;37.90;;;;;;6150499;28;82960;-70
2022/03/21 08:05:14;;;;;;;28.58;13.25;;;23.50;38.20;;;;;;6145718;28;84949;-69
2022/03/21 08:08:15;;;;;;;23.05;13.20;;;23.50;37.80;;;;;;6137216;28;83360;-71
2022/03/21 08:11:17;;;;;;;29.10;14.25;;;23.50;37.20;;;;;;6137786;28;83286;-69
2022/03/21 08:14:18;;;;;;;27.52;14.13;;;23.50;37.60;;;;;;6149558;28;83970;-70
2022/03/21 08:17:18;;;;;;;29.67;12.75;;;23.50;37.20;;;;;;6137282;28;82809;-72
2022/03/21 08:20:19;;;;;;;23.02;12.85;;;23.50;37.20;;;;;;6131000;28;83187;-71
2022/03/21 08:23:20;;;;;;;23.40;12.88;;;23.50;37.20;;;;;;6142376;28;83257;-70
2022/03/21 08:26:20;;;;;;;22.60;12.13;;;23.50;37.20;;;;;;6139580;28;83255;-71
2022/03/21 08:29:21;;;;;;;18.42;11.30;;;23.60;37.80;;;;;;6137235;28;83521;-71
2022/03/21 08:32:21;;;;;;;21.20;11.00;;;23.60;37.90;;;;;;6132726;28;83959;-73
2022/03/21 08:35:22;;;;;;;20.52;11.18;;;23.60;37.80;;;;;;6144086;28;83191;-70
2022/03/21 08:38:23;;;;;;;19.38;10.75;;;23.60;38.20;;;;;;6151285;28;82691;-75
2022/03/21 08:41:23;;;;;;;17.67;9.80;;;23.60;38.60;;;;;;6152028;28;83033;-70
2022/03/21 08:44:24;;;;;;;15.65;9.93;;;23.60;38.50;;;;;;6148490;28;82914;-70
2022/03/21 08:47:24;;;;;;;17.67;10.55;;;23.70;39.30;;;;;;6144208;28;80595;-69
2022/03/21 08:50:26;;;;;;;19.73;11.10;;;23.70;38.60;;;;;;6143444;28;83570;-68
2022/03/21 08:53:27;;;;;;;20.10;11.50;;;23.70;38.00;;;;;;6149669;28;83772;-68
2022/03/21 08:56:28;;;;;;;18.55;10.93;;;23.60;37.90;;;;;;6157293;28;84362;-69
2022/03/21 08:59:28;;;;;;;22.52;12.90;;;23.60;37.40;;;;;;6154579;28;82945;-68
2022/03/21 09:02:30;;;;;;;23.40;11.63;;;23.60;37.10;;;;;;6148033;28;83076;-71
2022/03/21 09:05:31;;;;;;;19.63;11.15;;;23.60;36.30;;;;;;6157838;28;82952;-72
2022/03/21 09:08:31;;;;;;;25.30;13.20;;;23.60;36.70;;;;;;6155861;28;84312;-70
2022/03/21 09:11:32;;;;;;;21.65;12.00;;;23.60;36.30;;;;;;6159071;28;83500;-70
2022/03/21 09:14:32;;;;;;;22.50;11.82;;;23.60;35.80;;;;;;6148414;28;83026;-72
2022/03/21 09:17:33;;;;;;;21.20;12.05;;;23.60;36.20;;;;;;6150965;28;83299;-72
2022/03/21 09:20:33;;;;;;;22.70;12.20;;;23.60;35.70;;;;;;6143870;28;83482;-72
2022/03/21 09:23:34;;;;;;;24.58;13.63;;;23.70;35.80;;;;;;6154539;28;83516;-72
2022/03/21 09:26:34;;;;;;;21.38;11.88;;;23.70;35.90;;;;;;6154854;28;83259;-67
2022/03/21 09:29:35;;;;;;;22.33;12.00;;;23.70;35.20;;;;;;6157633;28;83185;-70
2022/03/21 09:32:35;;;;;;;19.80;11.40;;;23.70;35.70;;;;;;6150536;28;84760;-71
2022/03/21 09:35:37;;;;;;;20.05;11.73;;;23.70;36.00;;;;;;6156727;28;83230;-72
2022/03/21 09:38:37;;;;;;;18.50;10.98;;;23.70;35.30;;;;;;6158456;28;83127;-71
2022/03/21 09:41:38;;;;;;;29.30;16.17;;;23.70;35.10;;;;;;6154458;28;83716;-72
2022/03/21 09:44:39;;;;;;;110.32;51.92;;;23.70;34.10;;;;;;6156606;28;83183;-74
2022/03/21 09:50:58;;;;;;;152.90;69.70;;;23.80;34.80;;;;;;6155929;28;83198;-71
2022/03/21 09:53:59;;;;;;;126.05;56.40;;;23.80;35.00;;;;;;6143188;28;83681;-70
2022/03/21 09:57:01;;;;;;;97.35;43.95;;;23.80;34.80;;;;;;6155972;28;84908;-71
2022/03/21 10:00:02;;;;;;;73.45;34.58;;;23.80;34.60;;;;;;6157409;28;82894;-70
2022/03/21 10:03:12;;;;;;;59.05;30.35;;;23.80;33.70;;;;;;6151439;28;83166;-71
2022/03/21 10:06:13;;;;;;;47.65;23.60;;;23.80;34.10;;;;;;6157980;28;83544;-71
2022/03/21 10:09:13;;;;;;;43.28;19.48;;;23.80;32.50;;;;;;6136831;28;82937;-72
2022/03/21 10:12:15;;;;;;;34.50;17.00;;;23.80;32.90;;;;;;6151351;28;83515;-71
2022/03/21 10:15:17;;;;;;;28.95;16.38;;;23.80;32.50;;;;;;6150145;28;83518;-72
2022/03/21 10:18:18;;;;;;;26.42;14.18;;;23.80;32.70;;;;;;6150793;28;84157;-69
2022/03/21 10:21:19;;;;;;;23.33;12.63;;;23.80;33.00;;;;;;6137471;28;83408;-70
2022/03/21 10:24:19;;;;;;;18.95;10.48;;;23.90;32.40;;;;;;6149613;28;83187;-70
2022/03/21 10:27:20;;;;;;;20.48;11.80;;;23.90;32.50;;;;;;6133452;28;82921;-69
2022/03/21 10:30:20;;;;;;;20.40;10.55;;;23.90;33.60;;;;;;6152401;28;82982;-69
2022/03/21 10:33:21;;;;;;;16.33;8.88;;;24.00;33.70;;;;;;6132598;28;83139;-73
2022/03/21 10:36:21;;;;;;;18.40;9.48;;;24.00;34.10;;;;;;6147812;28;84597;-67
2022/03/21 10:39:22;;;;;;;14.65;8.10;;;23.90;34.60;;;;;;6158817;28;80372;-69
2022/03/21 10:42:24;;;;;;;9.27;6.55;;;24.00;34.10;;;;;;6146693;28;80309;-71
2022/03/21 10:45:25;;;;;;;12.68;6.78;;;24.00;35.10;;;;;;6157178;28;80394;-69
2022/03/21 10:48:26;;;;;;;12.00;6.25;;;24.10;35.90;;;;;;6139578;28;80426;-70
2022/03/21 10:51:26;;;;;;;9.40;5.88;;;24.10;34.70;;;;;;6141076;28;80582;-72
2022/03/21 10:54:27;;;;;;;8.60;5.28;;;24.10;33.80;;;;;;6152119;28;81542;-71
2022/03/21 10:57:27;;;;;;;8.80;5.25;;;24.10;33.70;;;;;;6142568;28;81530;-69
2022/03/21 11:00:28;;;;;;;9.35;4.38;;;24.10;33.40;;;;;;6140572;28;80451;-70
2022/03/21 11:03:29;;;;;;;6.70;4.32;;;24.00;33.80;;;;;;6148755;28;80325;-68
2022/03/21 11:06:29;;;;;;;5.63;3.95;;;24.10;33.60;;;;;;6149556;28;80718;-70
2022/03/21 11:09:30;;;;;;;6.68;4.10;;;24.10;33.30;;;;;;6142849;28;80674;-70
2022/03/21 11:12:31;;;;;;;6.43;3.92;;;24.10;33.40;;;;;;6141495;28;80366;-69
2022/03/21 11:15:31;;;;;;;5.00;3.70;;;24.10;33.20;;;;;;6149857;28;80472;-69
2022/03/21 11:18:32;;;;;;;6.50;3.90;;;24.10;32.90;;;;;;6141978;28;80448;-69
2022/03/21 11:21:33;;;;;;;4.72;3.33;;;24.20;33.20;;;;;;6148909;28;81192;-64
2022/03/21 11:24:34;;;;;;;4.88;3.80;;;24.20;33.40;;;;;;6147895;28;80548;-63
2022/03/21 11:27:34;;;;;;;5.13;3.20;;;24.20;33.30;;;;;;6159408;28;80812;-63
2022/03/21 11:30:35;;;;;;;4.60;3.15;;;24.30;32.80;;;;;;6158453;28;80517;-65
2022/03/21 11:33:35;;;;;;;3.85;2.75;;;24.20;33.50;;;;;;6151534;28;80393;-62
2022/03/21 11:36:36;;;;;;;4.47;3.10;;;24.30;33.70;;;;;;6136929;28;81965;-63
2022/03/21 11:39:36;;;;;;;5.35;3.17;;;24.20;32.00;;;;;;6142541;28;80431;-63
2022/03/21 11:42:37;;;;;;;8.55;3.00;;;24.20;32.90;;;;;;6155756;28;80777;-68
2022/03/21 11:45:38;;;;;;;3.65;2.83;;;24.20;33.10;;;;;;6149091;28;80443;-66
2022/03/21 11:48:39;;;;;;;5.50;3.22;;;24.20;33.00;;;;;;6152711;28;82129;-69
2022/03/21 11:51:39;;;;;;;4.38;3.45;;;24.20;32.70;;;;;;6154631;28;80385;-67
2022/03/21 11:54:40;;;;;;;6.20;2.88;;;24.30;32.40;;;;;;6151597;28;80674;-68
2022/03/21 11:57:41;;;;;;;6.25;3.42;;;24.30;32.40;;;;;;6150812;28;81239;-70
2022/03/21 12:00:42;;;;;;;6.63;3.22;;;24.30;32.10;;;;;;6152669;28;80786;-70
2022/03/21 12:03:43;;;;;;;7.88;3.45;;;24.30;32.80;;;;;;6154642;28;80273;-72
2022/03/21 12:06:43;;;;;;;12.00;3.80;;;24.30;34.00;;;;;;6147039;28;80601;-72
2022/03/21 12:09:44;;;;;;;6.57;3.55;;;24.30;34.90;;;;;;6154570;28;80556;-72
2022/03/21 12:12:46;;;;;;;9.43;4.10;;;24.30;34.90;;;;;;6159323;28;80906;-72
2022/03/21 12:15:47;;;;;;;11.48;4.07;;;24.40;34.60;;;;;;6141888;28;80478;-72
2022/03/21 12:18:47;;;;;;;9.27;3.92;;;24.40;34.70;;;;;;6162310;28;80254;-72
2022/03/21 12:21:48;;;;;;;5.70;3.05;;;24.40;34.50;;;;;;6147322;28;80429;-73
2022/03/21 12:24:49;;;;;;;8.30;3.30;;;24.40;35.00;;;;;;6150006;28;81283;-72
2022/03/21 12:27:51;;;;;;;6.78;3.00;;;24.40;34.90;;;;;;6144748;28;81668;-72
2022/03/21 12:30:52;;;;;;;7.53;3.70;;;24.40;34.60;;;;;;6157361;28;80456;-71
2022/03/21 12:33:53;;;;;;;4.97;3.25;;;24.40;34.60;;;;;;6157406;28;81350;-71
2022/03/21 12:36:53;;;;;;;8.05;3.30;;;24.40;33.80;;;;;;6159740;28;80404;-71
2022/03/21 12:39:55;;;;;;;13.20;3.00;;;24.40;34.50;;;;;;6153918;28;80467;-71
2022/03/21 12:42:57;;;;;;;5.95;3.15;;;24.40;34.10;;;;;;6152810;28;80702;-69
2022/03/21 12:45:58;;;;;;;6.35;2.83;;;24.40;33.60;;;;;;6138988;28;80551;-68
2022/03/21 12:49:00;;;;;;;4.63;3.03;;;24.40;33.50;;;;;;6160378;28;81536;-66
2022/03/21 12:52:00;;;;;;;4.68;2.95;;;24.40;33.90;;;;;;6155658;28;80270;-67
2022/03/21 12:55:03;;;;;;;6.07;3.40;;;24.40;33.30;;;;;;6149005;28;81025;-68
2022/03/21 12:58:03;;;;;;;5.05;3.00;;;24.40;33.50;;;;;;6151645;28;80122;-68
2022/03/21 13:01:04;;;;;;;6.20;3.33;;;24.40;33.50;;;;;;6154640;28;81063;-68
2022/03/21 13:10:43;;;;;;;7.22;3.88;;;24.50;34.90;;;;;;6158154;28;80120;-68
2022/03/21 13:13:44;;;;;;;7.50;4.22;;;24.50;35.40;;;;;;6154238;28;81482;-68
2022/03/21 13:16:44;;;;;;;8.98;4.78;;;24.50;35.80;;;;;;6154758;28;80601;-68
2022/03/21 13:19:45;;;;;;;12.05;5.00;;;24.60;35.80;;;;;;6154953;28;80434;-69
2022/03/21 13:22:45;;;;;;;13.48;5.60;;;24.60;37.30;;;;;;6151742;28;80815;-67
2022/03/21 13:25:46;;;;;;;12.57;4.63;;;24.60;37.60;;;;;;6159319;28;80712;-69
2022/03/21 13:28:47;;;;;;;9.70;4.45;;;24.60;37.80;;;;;;6150946;28;81786;-70
2022/03/21 13:31:48;;;;;;;11.60;4.72;;;24.60;37.60;;;;;;6157458;28;81171;-68
2022/03/21 13:34:48;;;;;;;11.45;4.45;;;24.60;37.20;;;;;;6160462;28;80943;-69
2022/03/21 13:37:49;;;;;;;22.30;4.63;;;24.70;37.40;;;;;;6152538;28;81415;-68
2022/03/21 13:40:49;;;;;;;16.42;5.13;;;24.70;36.50;;;;;;6161649;28;80685;-68
2022/03/21 13:43:50;;;;;;;10.35;4.90;;;24.70;38.40;;;;;;6161292;28;80406;-67
2022/03/21 13:46:50;;;;;;;17.25;5.30;;;24.60;36.60;;;;;;6157241;28;80410;-69
2022/03/21 13:49:54;;;;;;;11.73;4.68;;;24.60;36.90;;;;;;6160178;28;80488;-72
2022/03/21 13:52:56;;;;;;;8.00;4.13;;;24.60;35.80;;;;;;6142192;28;80406;-70
2022/03/21 13:55:58;;;;;;;10.18;3.88;;;24.60;35.50;;;;;;6157538;28;81488;-71
2022/03/21 13:58:58;;;;;;;6.55;4.10;;;24.60;35.40;;;;;;6160602;28;82394;-70
2022/03/21 14:01:59;;;;;;;8.88;4.03;;;24.50;34.40;;;;;;6161259;28;80988;-70
2022/03/21 14:04:59;;;;;;;8.98;4.50;;;24.50;34.10;;;;;;6160039;28;81944;-70
2022/03/21 14:08:00;;;;;;;5.38;3.15;;;24.50;33.50;;;;;;6151177;28;82967;-71
2022/03/21 14:11:01;;;;;;;5.10;3.40;;;24.40;32.20;;;;;;6156682;28;80630;-68
2022/03/21 14:14:03;;;;;;;6.13;3.15;;;24.40;33.20;;;;;;6158152;28;80740;-68
2022/03/21 14:17:04;;;;;;;8.27;3.78;;;24.40;32.80;;;;;;6154111;28;80711;-66
2022/03/21 14:20:04;;;;;;;5.95;3.78;;;24.40;32.80;;;;;;6146697;28;80226;-69
2022/03/21 14:23:05;;;;;;;5.65;3.40;;;24.40;32.40;;;;;;6160459;28;81554;-67
2022/03/21 14:29:24;;;;;;;5.90;2.95;;;24.30;32.40;;;;;;6158184;28;82556;-67
2022/03/21 14:32:25;;;;;;;4.05;2.88;;;24.30;32.40;;;;;;6133499;28;80605;-69
2022/03/21 14:35:25;;;;;;;4.93;3.50;;;24.30;32.60;;;;;;6154592;28;80318;-68
2022/03/21 14:38:26;;;;;;;5.15;3.28;;;24.30;32.40;;;;;;6157977;28;80385;-69
2022/03/21 14:41:27;;;;;;;4.50;2.92;;;24.30;32.90;;;;;;6158238;28;80553;-69
2022/03/21 14:44:27;;;;;;;5.47;3.72;;;24.30;32.70;;;;;;6141955;28;80480;-68
2022/03/21 14:47:28;;;;;;;4.40;3.10;;;24.30;32.90;;;;;;6157389;28;84310;-69
2022/03/21 14:50:28;;;;;;;4.85;3.22;;;24.30;32.60;;;;;;6160035;28;80454;-68
2022/03/21 14:53:29;;;;;;;6.63;3.40;;;24.40;33.10;;;;;;6155988;28;80443;-68
2022/03/21 14:56:30;;;;;;;5.43;3.47;;;24.30;33.00;;;;;;6156236;28;80548;-67
2022/03/21 14:59:31;;;;;;;2.88;2.25;;;24.30;33.10;;;;;;6141698;28;80223;-67
2022/03/21 15:02:31;;;;;;;7.97;4.03;;;24.30;33.80;;;;;;6149636;28;80451;-67
2022/03/21 15:05:32;;;;;;;75.75;34.42;;;24.30;33.70;;;;;;6153652;28;80435;-66
2022/03/21 15:08:33;;;;;;;146.18;71.20;;;24.30;34.20;;;;;;6143721;28;82780;-67
2022/03/21 15:11:34;;;;;;;228.35;104.25;;;24.40;34.60;;;;;;6138174;28;83244;-67
2022/03/21 15:14:36;;;;;;;230.05;114.30;;;24.40;34.40;;;;;;6144269;28;85365;-67
2022/03/21 15:17:37;;;;;;;205.63;95.20;;;24.40;34.60;;;;;;6140204;28;86288;-67
2022/03/21 15:20:38;;;;;;;157.50;76.25;;;24.40;33.80;;;;;;6133087;28;85315;-67
2022/03/21 15:23:40;;;;;;;136.70;64.10;;;24.40;33.30;;;;;;6133394;28;83207;-66
2022/03/21 15:26:41;;;;;;;167.63;80.70;;;24.30;34.40;;;;;;6147728;28;83977;-66
2022/03/21 15:29:41;;;;;;;231.95;111.15;;;24.30;34.00;;;;;;6152111;28;83653;-67
2022/03/21 15:32:43;;;;;;;252.13;125.55;;;24.30;33.90;;;;;;6150088;28;86990;-67
2022/03/21 15:35:44;;;;;;;303.67;145.27;;;24.30;33.60;;;;;;6146319;28;85790;-67
2022/03/21 15:42:04;;;;;;;280.88;127.78;;;24.20;34.80;;;;;;6152581;28;86070;-68
2022/03/21 15:45:04;;;;;;;212.60;97.03;;;24.20;35.00;;;;;;6144620;28;85416;-67
2022/03/21 15:48:05;;;;;;;168.52;76.45;;;24.20;34.50;;;;;;6148622;28;86080;-68
2022/03/21 15:51:06;;;;;;;135.10;64.20;;;24.20;34.50;;;;;;6156255;28;82876;-67
2022/03/21 15:54:06;;;;;;;116.75;55.40;;;24.20;34.40;;;;;;6159431;28;84993;-68
2022/03/21 15:57:07;;;;;;;101.30;47.83;;;24.10;34.60;;;;;;6157293;28;84140;-67